KIJX/IJX METAR and TAF weather

Enter ICAO airport designator
Station Type Date Time Source
KIJX METAR 2018/12/12 07:55 UTC NOAA

KIJX 120755Z AUTO 17011KT 10SM CLR 04/M01 A2985 RMK AO2 T00411008


Station Type Date Time Source
KIJX Decoded METAR 2018/12/12 07:55 UTC NOAA

Jacksonville, Jacksonville Municipal Airport, IL, United States (KIJX) 39-46-27N 090-14-19W
Dec 12, 2018 - 02:55 AM EST / 2018.12.12 0755 UTC
Wind: from the S (170 degrees) at 13 MPH (11 KT):0
Visibility: 10 mile(s):0
Sky conditions: clear
Temperature: 39.4 F (4.1 C)
Dew Point: 30.6 F (-0.8 C)
Relative Humidity: 70%
Pressure (altimeter): 29.85 in. Hg (1010 hPa)
ob: KIJX 120755Z AUTO 17011KT 10SM CLR 04/M01 A2985 RMK AO2 T00411008
cycle: 8

Station Type Date Time Source
KIJX TAF UTC NOAA

Error!


Example: see airport list